Latest Weather Observations for Warburton

IDW60801

Issued at 7:15 am WST Thursday 8 December 2022 (issued every 10 minutes, with the page automatically refreshed every 10 minutes)

About weather observations | Map of weather stations | Latest weather observations for WA | Other Formats
Station Details ID: 013011 Name: WARBURTON AIRFIELD Lat: -26.13 Lon: 126.58 Height: 459.0 m
Data from the previous 72 hours. | See also: Recent months at Warburton
Date/Time
WST
Temp
°C
App
Temp
°C
Dew
Point
°C
Rel
Hum
%
Delta-T
°C
Wind Press
QNH
hPa
Press
MSL
hPa
Rain since
9am
mm
Dir  Spd
km/h
Gust
km/h
Spd
kts
Gust
kts
08/07:00am 28.0 25.0 10.7 34 10.0 NE 17 24 9 13 1010.9 1007.5 0.0
08/06:30am 27.4 24.1 11.0 36 9.5 ENE 19 26 10 14 1010.8 1007.4 0.0
08/06:00am 26.9 23.3 10.6 36 9.4 NE 20 33 11 18 1010.9 1007.5 0.0
08/05:30am 26.3 24.1 10.9 38 8.9 NNE 13 19 7 10 1010.9 1007.5 0.0
08/05:00am 26.1 23.9 10.7 38 8.8 NE 13 19 7 10 1010.4 1007.0 0.0
08/04:30am 25.8 23.9 10.4 38 8.8 ESE 11 17 6 9 1010.0 1006.5 0.0
08/04:00am 25.9 23.6 10.5 38 8.8 ESE 13 20 7 11 1009.3 1005.9 0.0
08/03:30am 26.0 23.4 10.6 38 8.8 ESE 15 20 8 11 1009.3 1005.9 0.0
08/03:00am 26.0 23.0 10.6 38 8.8 ESE 17 22 9 12 1009.1 1005.7 0.0
08/02:30am 25.9 22.5 10.5 38 8.8 ESE 19 30 10 16 1009.2 1005.8 0.0
08/02:00am 26.3 22.9 10.5 37 9.0 ESE 19 26 10 14 1009.1 1005.7 0.0
08/01:30am 26.7 23.3 10.4 36 9.3 ESE 19 26 10 14 1009.4 1006.0 0.0
08/01:00am 27.1 23.8 10.8 36 9.4 ESE 19 26 10 14 1009.9 1006.4 0.0
08/12:30am 27.5 23.9 10.7 35 9.7 ESE 20 35 11 19 1010.0 1006.5 0.0
08/12:00am 28.0 24.1 10.7 34 10.0 ESE 22 32 12 17 1010.3 1006.8 0.0
 
Date/Time
WST
Temp
°C
App
Temp
°C
Dew
Point
°C
Rel
Hum
%
Delta-T
°C
Wind Press
QNH
hPa
Press
MSL
hPa
Rain since
9am
mm
Dir  Spd
km/h
Gust
km/h
Spd
kts
Gust
kts
07/11:30pm 28.3 24.4 10.9 34 10.1 ESE 22 32 12 17 1010.6 1007.2 0.0
07/11:00pm 28.9 23.9 11.0 33 10.4 ESE 28 43 15 23 1010.6 1007.2 0.0
07/10:30pm 29.4 24.8 11.0 32 10.8 ESE 26 44 14 24 1010.9 1007.5 0.0
07/10:00pm 29.8 25.4 10.4 30 11.3 E 24 39 13 21 1011.0 1007.6 0.0
07/09:30pm 30.5 25.0 10.5 29 11.6 ESE 30 41 16 22 1010.9 1007.5 0.0
07/09:00pm 31.1 25.9 10.4 28 12.1 ESE 28 43 15 23 1010.9 1007.5 0.0
07/08:30pm 31.7 27.3 10.4 27 12.5 ESE 24 35 13 19 1010.7 1007.3 0.0
07/08:00pm 32.2 27.8 10.3 26 12.8 ESE 24 33 13 18 1010.5 1007.1 0.0
07/07:30pm 32.7 28.2 10.1 25 13.2 ESE 24 33 13 18 1010.4 1007.0 0.0
07/07:00pm 32.9 28.9 10.3 25 13.3 ESE 22 33 12 18 1010.3 1006.8 0.0
07/06:30pm 33.7 28.5 10.3 24 13.8 SE 28 37 15 20 1010.0 1006.5 0.0
07/06:00pm 34.4 30.1 10.9 24 14.0 SE 24 37 13 20 1009.7 1006.3 0.0
07/05:30pm 35.2 30.9 10.9 23 14.5 SE 24 35 13 19 1009.6 1006.2 0.0
07/05:00pm 35.5 31.7 11.2 23 14.6 SE 22 35 12 19 1009.4 1006.0 0.0
07/04:30pm 35.9 32.0 10.9 22 15.0 SE 22 33 12 18 1009.3 1005.9 0.0
07/04:00pm 36.0 31.9 11.6 23 14.8 SSE 24 37 13 20 1009.3 1005.9 0.0
07/03:30pm 36.2 32.0 11.1 22 15.1 SSE 24 33 13 18 1009.5 1006.1 0.0
07/03:00pm 36.3 33.5 11.2 22 15.2 ESE 17 26 9 14 1009.7 1006.3 0.0
07/02:30pm 35.8 33.0 11.4 23 14.7 SE 17 32 9 17 1010.0 1006.5 0.0
07/02:00pm 35.0 31.5 10.8 23 14.4 SE 20 32 11 17 1010.1 1006.6 0.0
07/01:30pm 35.3 32.0 11.7 24 14.3 ESE 20 35 11 19 1010.4 1007.0 0.0
07/01:00pm 35.2 31.7 12.2 25 14.0 SE 22 35 12 19 1010.6 1007.2 0.0
07/12:30pm 33.8 29.7 11.6 26 13.3 SE 24 35 13 19 1011.1 1007.7 0.0
07/12:00pm 32.4 29.1 11.6 28 12.4 SE 20 35 11 19 1011.6 1008.2 0.0
07/11:30am 32.1 28.5 11.8 29 12.1 SE 22 35 12 19 1011.9 1008.5 0.0
07/11:00am 30.7 26.0 12.1 32 11.1 SE 28 37 15 20 1012.3 1008.9 0.0
07/10:30am 29.6 24.4 11.6 33 10.6 ESE 30 43 16 23 1012.3 1008.9 0.0
07/10:00am 28.6 23.7 11.2 34 10.2 ESE 28 39 15 21 1012.8 1009.4 0.0
07/09:30am 27.7 22.3 10.9 35 9.7 ESE 30 41 16 22 1013.2 1009.8 0.0
07/09:00am 26.6 21.6 11.1 38 9.0 ESE 28 39 15 21 1013.4 1010.0 0.0
07/08:30am 25.9 20.9 10.9 39 8.6 SE 28 41 15 22 1013.6 1010.2 0.0
07/08:00am 24.6 19.9 10.5 41 8.0 ESE 26 41 14 22 1013.4 1010.0 0.0
07/07:30am 24.1 19.0 10.7 43 7.6 SE 28 39 15 21 1013.2 1009.8 0.0
07/07:00am 23.1 17.3 10.9 46 6.9 SE 32 41 17 22 1012.8 1009.4 0.0
07/06:30am 21.8 16.8 10.9 50 6.1 SE 28 37 15 20 1012.4 1009.0 0.0
07/06:00am 22.0 16.3 11.1 50 6.2 SE 32 43 17 23 1012.0 1008.6 0.0
07/05:30am 21.6 16.3 11.3 52 5.8 SE 30 39 16 21 1011.7 1008.3 0.0
07/05:00am 21.3 16.5 11.6 54 5.5 SE 28 44 15 24 1011.3 1007.9 0.0
07/04:30am 21.9 17.6 12.2 54 5.6 SE 26 41 14 22 1011.2 1007.8 0.0
07/04:00am 22.6 18.8 12.5 53 5.9 SSE 24 35 13 19 1011.0 1007.6 0.0
07/03:30am 23.1 19.4 12.7 52 6.1 SSE 24 35 13 19 1010.4 1007.0 0.0
07/03:00am 23.6 18.4 12.9 51 6.3 SSE 32 44 17 24 1009.5 1006.1 0.0
07/02:30am 24.7 20.3 13.0 48 6.9 SSE 28 37 15 20 1009.0 1005.6 0.0
07/02:00am 25.6 20.9 13.1 46 7.4 SSE 30 39 16 21 1008.9 1005.5 0.0
07/01:30am 27.2 22.8 12.8 41 8.6 SSE 28 39 15 21 1008.5 1005.1 0.0
07/01:00am 28.8 25.1 12.7 37 9.7 SSE 24 35 13 19 1008.4 1005.0 0.0
07/12:30am 29.6 26.5 12.1 34 10.4 SSE 20 32 11 17 1008.5 1005.1 0.0
07/12:00am 30.4 27.7 10.4 29 11.7 S 15 20 8 11 1008.4 1005.0 0.0
 
Date/Time
WST
Temp
°C
App
Temp
°C
Dew
Point
°C
Rel
Hum
%
Delta-T
°C
Wind Press
QNH
hPa
Press
MSL
hPa
Rain since
9am
mm
Dir  Spd
km/h
Gust
km/h
Spd
kts
Gust
kts
06/11:30pm 30.8 28.4 10.2 28 12.0 SSE 13 15 7 8 1008.1 1004.6 0.0
06/11:00pm 31.2 29.3 10.5 28 12.1 SE 11 15 6 8 1008.2 1004.7 0.0
06/10:30pm 31.5 30.1 10.8 28 12.2 ESE 9 13 5 7 1008.3 1004.8 0.0
06/10:00pm 32.2 29.9 10.3 26 12.8 ENE 13 17 7 9 1008.6 1005.2 0.0
06/09:30pm 33.0 30.3 10.4 25 13.3 ESE 15 24 8 13 1008.8 1005.4 0.0
06/09:00pm 33.3 29.7 10.6 25 13.4 ESE 20 28 11 15 1008.8 1005.4 0.0
06/08:30pm 33.1 29.8 11.0 26 13.1 ESE 19 30 10 16 1008.7 1005.3 0.0
06/08:00pm 33.2 28.8 10.5 25 13.4 SE 24 32 13 17 1008.0 1004.5 0.0
06/07:30pm 34.1 30.4 10.0 23 14.1 SSE 20 32 11 17 1007.8 1004.3 0.0
06/07:00pm 34.8 33.3 9.3 21 14.9 ENE 7 11 4 6 1006.6 1003.2 0.0
06/06:30pm 35.6 31.4 8.4 19 15.7 N 20 30 11 16 1006.3 1002.8 0.0
06/06:21pm 35.4 29.9 9.0 20 15.3 N 28 37 15 20 1006.2 1002.7 0.0
06/06:00pm 36.2 33.7 8.1 18 16.2 SSE 11 26 6 14 1005.7 1002.2 0.0
06/05:40pm 35.9 32.2 9.4 20 15.5 S 19 28 10 15 1005.6 1002.1 0.0
06/05:30pm 35.6 32.4 9.9 21 15.2 S 17 26 9 14 1005.6 1002.1 0.0
06/05:00pm 34.6 31.1 13.4 27 13.1 S 24 32 13 17 1005.6 1002.1 0.0
06/04:57pm 34.6 31.0 12.9 27 13.3 S 24 41 13 22 1005.6 1002.1 0.0
06/04:44pm 35.2 31.5 11.6 24 14.3 S 22 33 12 18 1005.3 1001.8 0.0
06/04:30pm 35.4 31.0 11.7 23 14.3 S 26 41 14 22 1005.3 1001.8 0.0
06/04:12pm 36.5 29.9 9.9 20 15.7 SSW 35 54 19 29 1004.8 1001.4 0.0
06/04:00pm 37.7 33.0 9.3 18 16.8 S 24 39 13 21 1004.5 1001.1 0.0
06/03:30pm 41.8 39.2 7.8 13 20.0 NNW 11 28 6 15 1004.1 1000.6 0.0
06/03:00pm 41.9 38.5 7.8 13 20.1 NW 15 28 8 15 1004.3 1000.8 0.0
06/02:30pm 41.0 36.9 6.0 12 20.0 NW 17 28 9 15 1004.5 1001.1 0.0
06/02:00pm 40.1 36.8 6.4 13 19.3 NW 13 24 7 13 1004.7 1001.3 0.0
06/01:30pm 40.8 38.4 7.0 13 19.5 N 9 20 5 11 1005.3 1001.8 0.0
06/01:00pm 40.8 36.5 7.0 13 19.6 N 19 33 10 18 1005.8 1002.3 0.0
06/12:30pm 40.0 36.9 7.4 14 18.9 NNE 13 33 7 18 1006.3 1002.8 0.0
06/12:00pm 40.1 36.9 8.5 15 18.6 N 15 28 8 15 1006.8 1003.4 0.0
06/11:30am 39.2 35.1 7.8 15 18.2 NNW 19 32 10 17 1007.6 1004.1 0.0
06/11:00am 39.0 35.7 9.5 17 17.6 N 17 30 9 16 1008.0 1004.5 0.0
06/10:30am 38.1 35.0 8.8 17 17.2 NW 15 28 8 15 1008.5 1005.1 0.0
06/10:00am 36.7 34.1 9.3 19 16.1 N 13 20 7 11 1008.7 1005.3 0.0
06/09:30am 36.6 34.6 11.4 22 15.3 NE 13 22 7 12 1008.9 1005.5 0.0
06/09:00am 36.3 33.5 11.2 22 15.2 ENE 17 24 9 13 1009.0 1005.6 1.2
06/08:30am 35.3 32.0 11.0 23 14.5 ENE 19 24 10 13 1009.1 1005.7 1.2
06/08:00am 33.7 30.6 12.1 27 13.1 ENE 20 33 11 18 1009.0 1005.6 1.2
06/07:30am 31.8 28.7 12.1 30 11.8 ENE 20 30 11 16 1009.3 1005.9 1.2
06/07:00am 30.2 27.5 11.7 32 11.0 E 17 22 9 12 1009.6 1006.2 1.2
06/06:30am 30.0 28.2 12.0 33 10.7 ENE 13 20 7 11 1009.4 1006.0 1.2
06/06:00am 29.2 26.7 12.2 35 10.1 ESE 17 22 9 12 1008.6 1005.2 1.2
06/05:30am 28.8 27.0 12.2 35 9.9 E 13 20 7 11 1008.5 1005.1 1.2
06/05:00am 27.6 26.2 13.5 41 8.5 E 13 17 7 9 1009.1 1005.7 1.2
06/04:30am 28.3 27.3 13.4 40 9.0 NNW 11 19 6 10 1010.1 1006.6 1.2
06/04:00am 28.4 26.8 12.7 38 9.4 N 13 24 7 13 1010.3 1006.8 1.2
06/03:30am 28.7 25.7 12.6 37 9.6 N 20 32 11 17 1009.2 1005.8 1.2
06/03:00am 28.3 26.8 13.0 39 9.2 ENE 13 19 7 10 1008.8 1005.4 1.2
06/02:30am 27.8 27.3 13.7 42 8.5 ENE 9 13 5 7 1008.8 1005.4 1.2
06/02:00am 28.2 27.5 13.3 40 9.0 SSE 9 15 5 8 1008.4 1005.0 1.2
06/01:30am 28.6 27.0 12.9 38 9.4 SSE 13 17 7 9 1008.1 1004.6 1.2
06/01:00am 28.3 27.2 13.0 39 9.2 S 11 13 6 7 1008.3 1004.8 1.2
06/12:30am 28.7 27.3 13.4 39 9.3 S 13 20 7 11 1008.5 1005.1 1.2
06/12:00am 29.1 26.2 12.9 37 9.8 SSW 20 28 11 15 1008.6 1005.2 1.2
 
Date/Time
WST
Temp
°C
App
Temp
°C
Dew
Point
°C
Rel
Hum
%
Delta-T
°C
Wind Press
QNH
hPa
Press
MSL
hPa
Rain since
9am
mm
Dir  Spd
km/h
Gust
km/h
Spd
kts
Gust
kts
05/11:30pm 28.9 24.8 13.9 39 9.2 S 28 41 15 22 1009.2 1005.8 1.2
05/11:02pm 30.0 23.5 12.9 35 10.3 SSW 39 57 21 31 1009.2 1005.8 1.2
05/11:00pm 30.1 23.1 12.5 34 10.6 SSW 41 57 22 31 1009.2 1005.8 1.2
05/10:57pm 30.2 23.4 12.1 32 10.8 SSW 39 56 21 30 1009.2 1005.8 1.2
05/10:38pm 33.3 27.5 9.4 23 13.9 SW 30 50 16 27 1009.0 1005.6 1.2
05/10:30pm 33.5 28.7 8.9 22 14.2 SW 24 33 13 18 1009.2 1005.8 1.2
05/10:00pm 33.8 32.7 8.4 21 14.6 NE 4 7 2 4 1008.4 1005.0 1.2
05/09:30pm 34.4 30.6 7.5 19 15.2 N 17 20 9 11 1008.1 1004.6 1.2
05/09:00pm 34.3 25.9 7.4 19 15.2 N 41 65 22 35 1008.3 1004.8 1.2
05/08:43pm 34.3 25.1 8.1 20 15.0 NNW 46 70 25 38 1008.2 1004.7 1.2
05/08:40pm 34.2 26.3 8.0 20 14.9 NNW 39 70 21 38 1007.8 1004.3 1.2
05/08:36pm 35.4 28.6 7.5 18 15.9 NNW 33 54 18 29 1008.3 1004.8 1.2
05/08:34pm 35.3 28.4 7.4 18 15.8 NNW 33 56 18 30 1008.1 1004.6 1.2
05/08:30pm 34.6 27.6 8.4 20 15.0 N 35 56 19 30 1008.1 1004.6 1.2
05/08:26pm 35.2 28.7 8.1 19 15.5 NNW 32 56 17 30 1008.2 1004.7 1.2
05/08:21pm 34.9 28.9 8.6 20 15.2 NNW 30 43 16 23 1008.3 1004.8 1.2
05/08:00pm 32.6 30.4 13.3 31 11.9 NNW 17 24 9 13 1008.5 1005.1 1.2
05/07:30pm 32.3 29.6 13.5 32 11.5 NNW 20 33 11 18 1008.5 1005.1 1.2
05/07:00pm 30.9 25.6 14.1 36 10.4 NW 35 48 19 26 1008.3 1004.8 0.6
05/06:53pm 35.5 30.0 9.1 20 15.4 NW 28 48 15 26 1008.0 1004.5 0.0
05/06:52pm 35.8 30.9 8.6 19 15.7 NW 24 41 13 22 1008.0 1004.5 0.0
05/06:30pm 37.4 34.9 6.4 15 17.5 NNE 9 13 5 7 1006.9 1003.5 0.0
05/06:00pm 38.0 35.4 5.9 14 18.1 ENE 9 13 5 7 1006.5 1003.1 0.0
05/05:30pm 38.5 35.9 6.3 14 18.2 NNE 9 19 5 10 1006.3 1002.8 0.0
05/05:00pm 39.6 37.6 6.1 13 19.1 ESE 6 11 3 6 1006.1 1002.6 0.0
05/04:30pm 40.1 37.9 6.4 13 19.2 SE 7 15 4 8 1005.9 1002.4 0.0
05/04:00pm 40.0 37.1 6.4 13 19.2 NE 11 20 6 11 1006.1 1002.6 0.0
05/03:30pm 39.9 38.0 7.4 14 18.8 SE 7 13 4 7 1006.5 1003.1 0.0
05/03:00pm 39.7 36.6 7.2 14 18.8 WNW 13 28 7 15 1006.8 1003.4 0.0
05/02:30pm 39.8 36.3 7.3 14 18.8 NE 15 32 8 17 1007.3 1003.9 0.0
05/02:00pm 39.6 36.5 7.1 14 18.7 N 13 30 7 16 1007.7 1004.2 0.0
05/01:30pm 39.1 36.5 7.7 15 18.2 NE 11 22 6 12 1008.2 1004.7 0.0
05/01:00pm 39.0 36.4 7.7 15 18.2 W 11 19 6 10 1008.6 1005.2 0.0
05/12:30pm 38.9 34.7 7.6 15 18.1 N 19 30 10 16 1009.1 1005.7 0.0
05/12:00pm 37.3 33.4 7.3 16 17.2 N 17 28 9 15 1009.4 1006.0 0.0
05/11:30am 38.8 34.7 8.5 16 17.7 NE 20 37 11 20 1009.9 1006.4 0.0
05/11:00am 36.8 32.7 7.8 17 16.7 NNE 19 28 10 15 1010.6 1007.2 0.0
05/10:30am 35.9 31.6 7.9 18 16.0 NNE 20 35 11 19 1011.2 1007.8 0.0
05/10:00am 34.2 31.1 8.8 21 14.7 NNE 15 22 8 12 1011.4 1008.0 0.0
05/09:30am 32.9 29.8 9.0 23 13.7 ENE 15 24 8 13 1011.8 1008.4 0.0
05/09:00am 30.3 27.9 8.7 26 12.2 NE 11 15 6 8 1012.3 1008.9 0.0
05/08:30am 29.1 26.7 8.7 28 11.5 NE 11 13 6 7 1012.0 1008.6 0.0
05/08:00am 28.1 25.6 8.4 29 11.0 ESE 11 15 6 8 1012.0 1008.6 0.0
05/07:30am 27.2 23.4 7.6 29 10.7 ENE 17 28 9 15 1011.8 1008.4 0.0

Other formats

Comma delimited format used in spreadsheet applications
http://www.bom.gov.au/fwo/IDW60801/IDW60801.94457.axf

JavaScript Object Notation format (JSON) in row-major order
http://www.bom.gov.au/fwo/IDW60801/IDW60801.94457.json

Data quality

Most of these data are generated automatically and are frequently updated. Quality checks on data are not normally performed. It is possible for incorrect values to appear. Refer to information at About Latest Weather Observations and please check the disclaimer before using these data.